Terminal Aerodrome Forecast
Issued by NWS

Home | Current Version | Previous Version | Text Only | Print | Product List | Glossary On
Versions: 1 2 3 4 5 6 7 8 9 10 11 12 13 14 15 16 17 18 19
000
FTUS43 KMQT 172339
TAFIWD
TAF
KIWD 172339Z 1800/1824 00000KT 3SM -SN BR OVC007
     FM180200 31004KT 3SM BR OVC003
     FM181400 33008KT P6SM OVC008
     FM182100 31011G20KT P6SM OVC025=

USA.gov is the U.S. government's official web portal to all federal, state and local government web resources and services.